sensor_id;sensor_type;location;lat;lon;timestamp;temperature;humidity
56256;DHT22;57229;51.432;-2.598;2023-03-23T00:00:56;8.60;99.90
56256;DHT22;57229;51.432;-2.598;2023-03-23T00:03:22;8.60;99.90
56256;DHT22;57229;51.432;-2.598;2023-03-23T00:05:52;8.60;99.90
56256;DHT22;57229;51.432;-2.598;2023-03-23T00:08:19;8.70;99.90
56256;DHT22;57229;51.432;-2.598;2023-03-23T00:10:52;8.70;99.90
56256;DHT22;57229;51.432;-2.598;2023-03-23T00:13:25;8.80;99.90
56256;DHT22;57229;51.432;-2.598;2023-03-23T00:15:52;8.70;99.90
56256;DHT22;57229;51.432;-2.598;2023-03-23T00:18:18;8.70;99.90
56256;DHT22;57229;51.432;-2.598;2023-03-23T00:20:52;8.60;99.90
56256;DHT22;57229;51.432;-2.598;2023-03-23T00:23:20;8.60;99.90
56256;DHT22;57229;51.432;-2.598;2023-03-23T00:25:47;8.60;99.90
56256;DHT22;57229;51.432;-2.598;2023-03-23T00:28:14;8.70;99.90
56256;DHT22;57229;51.432;-2.598;2023-03-23T00:30:40;8.60;99.90
56256;DHT22;57229;51.432;-2.598;2023-03-23T00:33:08;8.50;99.90
56256;DHT22;57229;51.432;-2.598;2023-03-23T00:35:34;8.50;99.90
56256;DHT22;57229;51.432;-2.598;2023-03-23T00:38:01;8.50;99.90
56256;DHT22;57229;51.432;-2.598;2023-03-23T00:40:28;8.50;99.90
56256;DHT22;57229;51.432;-2.598;2023-03-23T00:42:53;8.50;99.90
56256;DHT22;57229;51.432;-2.598;2023-03-23T00:45:19;8.60;99.90
56256;DHT22;57229;51.432;-2.598;2023-03-23T00:47:45;8.60;99.90
56256;DHT22;57229;51.432;-2.598;2023-03-23T00:50:12;8.60;99.90
56256;DHT22;57229;51.432;-2.598;2023-03-23T00:52:40;8.60;99.90
56256;DHT22;57229;51.432;-2.598;2023-03-23T00:55:06;8.50;99.90
56256;DHT22;57229;51.432;-2.598;2023-03-23T00:57:32;8.50;99.90
56256;DHT22;57229;51.432;-2.598;2023-03-23T00:59:58;8.40;99.90
56256;DHT22;57229;51.432;-2.598;2023-03-23T01:02:23;8.40;99.90
56256;DHT22;57229;51.432;-2.598;2023-03-23T01:04:52;8.40;99.90
56256;DHT22;57229;51.432;-2.598;2023-03-23T01:07:20;8.40;99.90
56256;DHT22;57229;51.432;-2.598;2023-03-23T01:09:48;8.40;99.90
56256;DHT22;57229;51.432;-2.598;2023-03-23T01:12:14;8.40;99.90
56256;DHT22;57229;51.432;-2.598;2023-03-23T01:14:41;8.30;99.90
56256;DHT22;57229;51.432;-2.598;2023-03-23T01:17:07;8.30;99.90
56256;DHT22;57229;51.432;-2.598;2023-03-23T01:19:33;8.30;99.90
56256;DHT22;57229;51.432;-2.598;2023-03-23T01:21:58;8.30;99.90
56256;DHT22;57229;51.432;-2.598;2023-03-23T01:24:24;8.20;99.90
56256;DHT22;57229;51.432;-2.598;2023-03-23T01:26:50;8.20;99.90
56256;DHT22;57229;51.432;-2.598;2023-03-23T01:29:16;8.20;99.90
56256;DHT22;57229;51.432;-2.598;2023-03-23T01:31:41;8.10;99.90
56256;DHT22;57229;51.432;-2.598;2023-03-23T01:34:08;8.10;99.90
56256;DHT22;57229;51.432;-2.598;2023-03-23T01:36:35;8.00;99.90
56256;DHT22;57229;51.432;-2.598;2023-03-23T01:39:03;8.00;99.90
56256;DHT22;57229;51.432;-2.598;2023-03-23T01:41:31;8.00;99.90
56256;DHT22;57229;51.432;-2.598;2023-03-23T01:44:05;8.00;99.90
56256;DHT22;57229;51.432;-2.598;2023-03-23T01:46:34;8.00;99.90
56256;DHT22;57229;51.432;-2.598;2023-03-23T01:49:12;7.90;99.90
56256;DHT22;57229;51.432;-2.598;2023-03-23T01:52:09;8.00;99.90
56256;DHT22;57229;51.432;-2.598;2023-03-23T01:54:40;8.10;99.90
56256;DHT22;57229;51.432;-2.598;2023-03-23T01:57:14;8.10;99.90
56256;DHT22;57229;51.432;-2.598;2023-03-23T01:59:42;8.10;99.90
56256;DHT22;57229;51.432;-2.598;2023-03-23T02:02:11;8.00;99.90
56256;DHT22;57229;51.432;-2.598;2023-03-23T02:04:38;8.00;99.90
56256;DHT22;57229;51.432;-2.598;2023-03-23T02:07:04;8.00;99.90
56256;DHT22;57229;51.432;-2.598;2023-03-23T02:09:31;8.00;99.90
56256;DHT22;57229;51.432;-2.598;2023-03-23T02:11:57;8.00;99.90
56256;DHT22;57229;51.432;-2.598;2023-03-23T02:14:25;8.00;99.90
56256;DHT22;57229;51.432;-2.598;2023-03-23T02:17:02;8.00;99.90
56256;DHT22;57229;51.432;-2.598;2023-03-23T02:24:58;7.80;99.90
56256;DHT22;57229;51.432;-2.598;2023-03-23T02:38:45;7.90;99.90
56256;DHT22;57229;51.432;-2.598;2023-03-23T02:41:19;7.90;99.90
56256;DHT22;57229;51.432;-2.598;2023-03-23T02:43:47;7.90;99.90
56256;DHT22;57229;51.432;-2.598;2023-03-23T02:46:15;7.80;99.90
56256;DHT22;57229;51.432;-2.598;2023-03-23T02:48:43;7.80;99.90
56256;DHT22;57229;51.432;-2.598;2023-03-23T02:51:12;7.80;99.90
56256;DHT22;57229;51.432;-2.598;2023-03-23T02:53:41;7.80;99.90
56256;DHT22;57229;51.432;-2.598;2023-03-23T02:56:08;7.80;99.90
56256;DHT22;57229;51.432;-2.598;2023-03-23T02:58:35;7.80;99.90
56256;DHT22;57229;51.432;-2.598;2023-03-23T03:04:00;7.80;99.90
56256;DHT22;57229;51.432;-2.598;2023-03-23T03:06:36;7.80;99.90
56256;DHT22;57229;51.432;-2.598;2023-03-23T03:09:11;7.90;99.90
56256;DHT22;57229;51.432;-2.598;2023-03-23T03:11:48;7.90;99.90
56256;DHT22;57229;51.432;-2.598;2023-03-23T03:14:37;7.90;99.90
56256;DHT22;57229;51.432;-2.598;2023-03-23T03:17:13;7.90;99.90
56256;DHT22;57229;51.432;-2.598;2023-03-23T03:19:46;7.90;99.90
56256;DHT22;57229;51.432;-2.598;2023-03-23T03:22:14;7.90;99.90
56256;DHT22;57229;51.432;-2.598;2023-03-23T03:24:41;7.90;99.90
56256;DHT22;57229;51.432;-2.598;2023-03-23T03:27:14;7.80;99.90
56256;DHT22;57229;51.432;-2.598;2023-03-23T03:29:46;7.80;99.90
56256;DHT22;57229;51.432;-2.598;2023-03-23T03:32:15;7.80;99.90
56256;DHT22;57229;51.432;-2.598;2023-03-23T03:34:44;7.70;99.90
56256;DHT22;57229;51.432;-2.598;2023-03-23T03:37:10;7.80;99.90
56256;DHT22;57229;51.432;-2.598;2023-03-23T03:39:38;7.80;99.90
56256;DHT22;57229;51.432;-2.598;2023-03-23T03:42:04;7.80;99.90
56256;DHT22;57229;51.432;-2.598;2023-03-23T03:44:31;7.70;99.90
56256;DHT22;57229;51.432;-2.598;2023-03-23T03:46:57;7.70;99.90
56256;DHT22;57229;51.432;-2.598;2023-03-23T03:49:23;7.70;99.90
56256;DHT22;57229;51.432;-2.598;2023-03-23T03:51:48;7.70;99.90
56256;DHT22;57229;51.432;-2.598;2023-03-23T03:54:14;7.70;99.90
56256;DHT22;57229;51.432;-2.598;2023-03-23T03:56:41;7.70;99.90
56256;DHT22;57229;51.432;-2.598;2023-03-23T03:59:08;7.70;99.90
56256;DHT22;57229;51.432;-2.598;2023-03-23T04:01:36;7.60;99.90
56256;DHT22;57229;51.432;-2.598;2023-03-23T04:04:02;7.70;99.90
56256;DHT22;57229;51.432;-2.598;2023-03-23T04:06:29;7.70;99.90
56256;DHT22;57229;51.432;-2.598;2023-03-23T04:08:57;7.70;99.90
56256;DHT22;57229;51.432;-2.598;2023-03-23T04:11:24;7.70;99.90
56256;DHT22;57229;51.432;-2.598;2023-03-23T04:13:51;7.60;99.90
56256;DHT22;57229;51.432;-2.598;2023-03-23T04:16:16;7.60;99.90
56256;DHT22;57229;51.432;-2.598;2023-03-23T04:18:42;7.60;99.90
56256;DHT22;57229;51.432;-2.598;2023-03-23T04:21:10;7.60;99.90
56256;DHT22;57229;51.432;-2.598;2023-03-23T04:23:36;7.60;99.90
56256;DHT22;57229;51.432;-2.598;2023-03-23T04:26:03;7.60;99.90
56256;DHT22;57229;51.432;-2.598;2023-03-23T04:28:29;7.60;99.90
56256;DHT22;57229;51.432;-2.598;2023-03-23T04:30:59;7.50;99.90
56256;DHT22;57229;51.432;-2.598;2023-03-23T04:33:27;7.40;99.90
56256;DHT22;57229;51.432;-2.598;2023-03-23T04:35:55;7.40;99.90
56256;DHT22;57229;51.432;-2.598;2023-03-23T04:38:22;7.40;99.90
56256;DHT22;57229;51.432;-2.598;2023-03-23T04:40:51;7.40;99.90
56256;DHT22;57229;51.432;-2.598;2023-03-23T04:43:18;7.30;99.90
56256;DHT22;57229;51.432;-2.598;2023-03-23T04:45:47;7.20;99.90
56256;DHT22;57229;51.432;-2.598;2023-03-23T04:48:17;7.20;99.90
56256;DHT22;57229;51.432;-2.598;2023-03-23T04:50:45;7.20;99.90
56256;DHT22;57229;51.432;-2.598;2023-03-23T04:53:10;7.20;99.90
56256;DHT22;57229;51.432;-2.598;2023-03-23T04:55:36;7.30;99.90
56256;DHT22;57229;51.432;-2.598;2023-03-23T04:58:06;7.30;99.90
56256;DHT22;57229;51.432;-2.598;2023-03-23T05:00:34;7.30;99.90
56256;DHT22;57229;51.432;-2.598;2023-03-23T05:02:59;7.30;99.90
56256;DHT22;57229;51.432;-2.598;2023-03-23T05:05:27;7.40;99.90
56256;DHT22;57229;51.432;-2.598;2023-03-23T05:07:54;7.40;99.90
56256;DHT22;57229;51.432;-2.598;2023-03-23T05:10:20;7.40;99.90
56256;DHT22;57229;51.432;-2.598;2023-03-23T05:12:46;7.50;99.90
56256;DHT22;57229;51.432;-2.598;2023-03-23T05:15:14;7.50;99.90
56256;DHT22;57229;51.432;-2.598;2023-03-23T05:17:40;7.60;99.90
56256;DHT22;57229;51.432;-2.598;2023-03-23T05:20:15;7.70;99.90
56256;DHT22;57229;51.432;-2.598;2023-03-23T05:22:46;7.80;99.90
56256;DHT22;57229;51.432;-2.598;2023-03-23T05:25:15;7.80;99.90
56256;DHT22;57229;51.432;-2.598;2023-03-23T05:27:44;7.90;99.90
56256;DHT22;57229;51.432;-2.598;2023-03-23T05:30:15;7.90;99.90
56256;DHT22;57229;51.432;-2.598;2023-03-23T05:32:43;7.90;99.90
56256;DHT22;57229;51.432;-2.598;2023-03-23T05:35:11;7.90;99.90
56256;DHT22;57229;51.432;-2.598;2023-03-23T05:37:38;7.80;99.90
56256;DHT22;57229;51.432;-2.598;2023-03-23T05:40:05;7.80;99.90
56256;DHT22;57229;51.432;-2.598;2023-03-23T05:42:33;7.90;99.90
56256;DHT22;57229;51.432;-2.598;2023-03-23T05:45:03;8.00;99.90
56256;DHT22;57229;51.432;-2.598;2023-03-23T05:47:28;8.00;99.90
56256;DHT22;57229;51.432;-2.598;2023-03-23T05:49:56;8.00;99.90
56256;DHT22;57229;51.432;-2.598;2023-03-23T05:52:22;8.00;99.90
56256;DHT22;57229;51.432;-2.598;2023-03-23T05:54:53;8.10;99.90
56256;DHT22;57229;51.432;-2.598;2023-03-23T05:57:20;8.10;99.90
56256;DHT22;57229;51.432;-2.598;2023-03-23T05:59:53;8.10;99.90
56256;DHT22;57229;51.432;-2.598;2023-03-23T06:02:25;8.20;99.90
56256;DHT22;57229;51.432;-2.598;2023-03-23T06:05:15;8.30;99.90
56256;DHT22;57229;51.432;-2.598;2023-03-23T06:07:47;8.40;99.90
56256;DHT22;57229;51.432;-2.598;2023-03-23T06:10:13;8.40;99.90
56256;DHT22;57229;51.432;-2.598;2023-03-23T06:12:40;8.40;99.90
56256;DHT22;57229;51.432;-2.598;2023-03-23T06:15:07;8.50;99.90
56256;DHT22;57229;51.432;-2.598;2023-03-23T06:18:10;8.50;99.90
56256;DHT22;57229;51.432;-2.598;2023-03-23T06:20:39;8.50;99.90
56256;DHT22;57229;51.432;-2.598;2023-03-23T06:23:06;8.60;99.90
56256;DHT22;57229;51.432;-2.598;2023-03-23T06:25:32;8.60;99.90
56256;DHT22;57229;51.432;-2.598;2023-03-23T06:27:58;8.60;99.90
56256;DHT22;57229;51.432;-2.598;2023-03-23T06:30:24;8.60;99.90
56256;DHT22;57229;51.432;-2.598;2023-03-23T06:32:52;8.70;99.90
56256;DHT22;57229;51.432;-2.598;2023-03-23T06:35:19;8.70;99.90
56256;DHT22;57229;51.432;-2.598;2023-03-23T06:37:45;8.80;99.90
56256;DHT22;57229;51.432;-2.598;2023-03-23T06:40:11;8.80;99.90
56256;DHT22;57229;51.432;-2.598;2023-03-23T06:42:37;8.90;99.90
56256;DHT22;57229;51.432;-2.598;2023-03-23T06:45:04;9.00;99.90
56256;DHT22;57229;51.432;-2.598;2023-03-23T06:47:46;9.10;99.90
56256;DHT22;57229;51.432;-2.598;2023-03-23T06:50:18;9.20;99.90
56256;DHT22;57229;51.432;-2.598;2023-03-23T06:52:48;9.20;99.90
56256;DHT22;57229;51.432;-2.598;2023-03-23T06:55:14;9.20;99.90
56256;DHT22;57229;51.432;-2.598;2023-03-23T06:57:40;9.20;99.90
56256;DHT22;57229;51.432;-2.598;2023-03-23T07:00:10;9.30;99.90
56256;DHT22;57229;51.432;-2.598;2023-03-23T07:02:57;9.20;99.90
56256;DHT22;57229;51.432;-2.598;2023-03-23T07:05:23;9.40;99.90
56256;DHT22;57229;51.432;-2.598;2023-03-23T07:07:50;9.60;99.90
56256;DHT22;57229;51.432;-2.598;2023-03-23T07:10:16;9.90;99.90
56256;DHT22;57229;51.432;-2.598;2023-03-23T07:12:42;10.10;99.90
56256;DHT22;57229;51.432;-2.598;2023-03-23T07:15:09;10.40;99.90
56256;DHT22;57229;51.432;-2.598;2023-03-23T07:17:36;10.60;99.90
56256;DHT22;57229;51.432;-2.598;2023-03-23T07:20:09;10.90;99.90
56256;DHT22;57229;51.432;-2.598;2023-03-23T07:22:59;11.20;99.90
56256;DHT22;57229;51.432;-2.598;2023-03-23T07:25:31;11.20;99.90
56256;DHT22;57229;51.432;-2.598;2023-03-23T07:28:00;10.70;99.90
56256;DHT22;57229;51.432;-2.598;2023-03-23T07:30:38;11.40;99.90
56256;DHT22;57229;51.432;-2.598;2023-03-23T07:33:05;11.60;99.90
56256;DHT22;57229;51.432;-2.598;2023-03-23T07:35:31;11.80;99.90
56256;DHT22;57229;51.432;-2.598;2023-03-23T07:38:16;11.60;99.90
56256;DHT22;57229;51.432;-2.598;2023-03-23T07:40:43;11.40;99.90
56256;DHT22;57229;51.432;-2.598;2023-03-23T07:43:09;11.50;99.90
56256;DHT22;57229;51.432;-2.598;2023-03-23T07:45:35;11.50;99.90
56256;DHT22;57229;51.432;-2.598;2023-03-23T07:48:04;11.40;99.90
56256;DHT22;57229;51.432;-2.598;2023-03-23T07:50:30;11.30;99.90
56256;DHT22;57229;51.432;-2.598;2023-03-23T07:52:58;11.20;99.90
56256;DHT22;57229;51.432;-2.598;2023-03-23T07:55:33;11.20;99.90
56256;DHT22;57229;51.432;-2.598;2023-03-23T07:58:02;11.20;99.90
56256;DHT22;57229;51.432;-2.598;2023-03-23T08:00:28;11.20;99.90
56256;DHT22;57229;51.432;-2.598;2023-03-23T08:02:59;11.30;99.90
56256;DHT22;57229;51.432;-2.598;2023-03-23T08:05:26;11.40;99.90
56256;DHT22;57229;51.432;-2.598;2023-03-23T08:07:54;11.30;99.90
56256;DHT22;57229;51.432;-2.598;2023-03-23T08:10:31;11.40;99.90
56256;DHT22;57229;51.432;-2.598;2023-03-23T08:12:57;11.40;99.90
56256;DHT22;57229;51.432;-2.598;2023-03-23T08:15:24;11.50;99.90
56256;DHT22;57229;51.432;-2.598;2023-03-23T08:17:50;11.50;99.90
56256;DHT22;57229;51.432;-2.598;2023-03-23T08:20:18;11.60;99.90
56256;DHT22;57229;51.432;-2.598;2023-03-23T08:22:57;11.80;99.90
56256;DHT22;57229;51.432;-2.598;2023-03-23T08:25:29;11.90;99.90
56256;DHT22;57229;51.432;-2.598;2023-03-23T08:28:41;11.90;99.90
56256;DHT22;57229;51.432;-2.598;2023-03-23T08:31:23;11.90;99.90
56256;DHT22;57229;51.432;-2.598;2023-03-23T08:33:51;12.00;99.90
56256;DHT22;57229;51.432;-2.598;2023-03-23T08:36:18;12.10;99.90
56256;DHT22;57229;51.432;-2.598;2023-03-23T08:38:44;12.20;99.90
56256;DHT22;57229;51.432;-2.598;2023-03-23T08:41:11;12.30;99.90
56256;DHT22;57229;51.432;-2.598;2023-03-23T08:43:40;12.30;99.90
56256;DHT22;57229;51.432;-2.598;2023-03-23T08:46:07;12.30;99.90
56256;DHT22;57229;51.432;-2.598;2023-03-23T08:48:37;12.30;99.90
56256;DHT22;57229;51.432;-2.598;2023-03-23T08:51:10;12.30;99.90
56256;DHT22;57229;51.432;-2.598;2023-03-23T08:53:40;12.30;99.90
56256;DHT22;57229;51.432;-2.598;2023-03-23T08:56:13;12.50;99.90
56256;DHT22;57229;51.432;-2.598;2023-03-23T08:58:50;12.50;99.90
56256;DHT22;57229;51.432;-2.598;2023-03-23T09:01:28;12.50;99.90
56256;DHT22;57229;51.432;-2.598;2023-03-23T09:06:52;12.50;99.90
56256;DHT22;57229;51.432;-2.598;2023-03-23T09:09:19;12.40;99.90
56256;DHT22;57229;51.432;-2.598;2023-03-23T09:11:44;12.40;99.90
56256;DHT22;57229;51.432;-2.598;2023-03-23T09:14:11;12.40;99.90
56256;DHT22;57229;51.432;-2.598;2023-03-23T09:16:37;12.40;99.90
56256;DHT22;57229;51.432;-2.598;2023-03-23T09:19:09;12.50;99.90
56256;DHT22;57229;51.432;-2.598;2023-03-23T09:21:34;12.90;99.90
56256;DHT22;57229;51.432;-2.598;2023-03-23T09:24:01;14.10;99.90
56256;DHT22;57229;51.432;-2.598;2023-03-23T09:26:27;15.10;99.90
56256;DHT22;57229;51.432;-2.598;2023-03-23T09:28:53;16.40;99.20
56256;DHT22;57229;51.432;-2.598;2023-03-23T09:31:25;17.30;95.50
56256;DHT22;57229;51.432;-2.598;2023-03-23T09:33:55;17.70;94.60
56256;DHT22;57229;51.432;-2.598;2023-03-23T09:36:36;18.00;93.80
56256;DHT22;57229;51.432;-2.598;2023-03-23T09:39:05;18.10;93.30
56256;DHT22;57229;51.432;-2.598;2023-03-23T09:50:19;18.20;93.20
56256;DHT22;57229;51.432;-2.598;2023-03-23T09:53:00;18.40;92.00
56256;DHT22;57229;51.432;-2.598;2023-03-23T09:55:27;18.80;91.40
56256;DHT22;57229;51.432;-2.598;2023-03-23T10:06:58;20.30;87.10
56256;DHT22;57229;51.432;-2.598;2023-03-23T10:09:32;20.30;87.50
56256;DHT22;57229;51.432;-2.598;2023-03-23T10:12:25;20.70;86.30
56256;DHT22;57229;51.432;-2.598;2023-03-23T10:15:14;20.80;83.90
56256;DHT22;57229;51.432;-2.598;2023-03-23T10:18:24;18.50;88.20
56256;DHT22;57229;51.432;-2.598;2023-03-23T10:21:22;18.00;92.10
56256;DHT22;57229;51.432;-2.598;2023-03-23T10:34:24;19.60;88.00
56256;DHT22;57229;51.432;-2.598;2023-03-23T10:37:25;19.30;87.10
56256;DHT22;57229;51.432;-2.598;2023-03-23T10:39:58;18.30;90.70
56256;DHT22;57229;51.432;-2.598;2023-03-23T10:42:34;17.40;92.10
56256;DHT22;57229;51.432;-2.598;2023-03-23T10:48:00;15.80;95.80
56256;DHT22;57229;51.432;-2.598;2023-03-23T10:50:39;15.10;96.10
56256;DHT22;57229;51.432;-2.598;2023-03-23T10:53:18;14.70;97.40
56256;DHT22;57229;51.432;-2.598;2023-03-23T10:55:45;14.80;97.50
56256;DHT22;57229;51.432;-2.598;2023-03-23T10:58:28;15.00;98.20
56256;DHT22;57229;51.432;-2.598;2023-03-23T11:01:04;16.00;97.10
56256;DHT22;57229;51.432;-2.598;2023-03-23T11:03:38;16.10;96.80
56256;DHT22;57229;51.432;-2.598;2023-03-23T11:06:09;16.10;95.60
56256;DHT22;57229;51.432;-2.598;2023-03-23T11:08:47;16.30;94.80
56256;DHT22;57229;51.432;-2.598;2023-03-23T11:11:27;16.60;93.90
56256;DHT22;57229;51.432;-2.598;2023-03-23T11:17:27;17.90;91.90
56256;DHT22;57229;51.432;-2.598;2023-03-23T11:20:08;18.70;89.40
56256;DHT22;57229;51.432;-2.598;2023-03-23T11:22:37;20.10;88.00
56256;DHT22;57229;51.432;-2.598;2023-03-23T11:25:08;20.90;81.80
56256;DHT22;57229;51.432;-2.598;2023-03-23T11:27:57;20.70;81.80
56256;DHT22;57229;51.432;-2.598;2023-03-23T11:30:27;20.60;81.50
56256;DHT22;57229;51.432;-2.598;2023-03-23T11:33:01;21.00;81.70
56256;DHT22;57229;51.432;-2.598;2023-03-23T11:35:57;20.60;79.90
56256;DHT22;57229;51.432;-2.598;2023-03-23T11:38:29;18.80;83.30
56256;DHT22;57229;51.432;-2.598;2023-03-23T11:40:55;17.30;87.60
56256;DHT22;57229;51.432;-2.598;2023-03-23T11:43:24;18.60;88.10
56256;DHT22;57229;51.432;-2.598;2023-03-23T11:47:10;20.60;80.60
56256;DHT22;57229;51.432;-2.598;2023-03-23T11:49:25;21.00;79.00
56256;DHT22;57229;51.432;-2.598;2023-03-23T11:52:13;20.30;80.70
56256;DHT22;57229;51.432;-2.598;2023-03-23T11:54:57;20.50;79.70
56256;DHT22;57229;51.432;-2.598;2023-03-23T11:57:34;19.60;80.80
56256;DHT22;57229;51.432;-2.598;2023-03-23T12:00:15;18.20;84.50
56256;DHT22;57229;51.432;-2.598;2023-03-23T12:05:52;16.40;90.50
56256;DHT22;57229;51.432;-2.598;2023-03-23T12:11:48;15.70;93.10
56256;DHT22;57229;51.432;-2.598;2023-03-23T12:14:30;15.40;92.90
56256;DHT22;57229;51.432;-2.598;2023-03-23T12:29:15;15.60;93.80
56256;DHT22;57229;51.432;-2.598;2023-03-23T12:34:50;16.00;93.70
56256;DHT22;57229;51.432;-2.598;2023-03-23T12:37:24;16.30;93.40
56256;DHT22;57229;51.432;-2.598;2023-03-23T12:46:17;15.80;93.50
56256;DHT22;57229;51.432;-2.598;2023-03-23T12:48:53;15.60;94.20
56256;DHT22;57229;51.432;-2.598;2023-03-23T12:51:48;15.40;94.80
56256;DHT22;57229;51.432;-2.598;2023-03-23T12:54:31;15.10;95.40
56256;DHT22;57229;51.432;-2.598;2023-03-23T13:02:44;14.40;97.20
56256;DHT22;57229;51.432;-2.598;2023-03-23T13:08:24;14.30;97.40
56256;DHT22;57229;51.432;-2.598;2023-03-23T13:11:10;14.40;96.90
56256;DHT22;57229;51.432;-2.598;2023-03-23T13:13:47;14.60;97.50
56256;DHT22;57229;51.432;-2.598;2023-03-23T13:19:26;14.70;97.10
56256;DHT22;57229;51.432;-2.598;2023-03-23T13:22:23;14.70;96.90
56256;DHT22;57229;51.432;-2.598;2023-03-23T13:25:03;14.70;97.50
56256;DHT22;57229;51.432;-2.598;2023-03-23T13:27:33;14.70;97.80
56256;DHT22;57229;51.432;-2.598;2023-03-23T13:30:01;14.60;98.20
56256;DHT22;57229;51.432;-2.598;2023-03-23T13:32:39;14.60;98.60
56256;DHT22;57229;51.432;-2.598;2023-03-23T13:35:13;14.50;98.90
56256;DHT22;57229;51.432;-2.598;2023-03-23T13:37:49;14.50;99.50
56256;DHT22;57229;51.432;-2.598;2023-03-23T13:43:49;14.40;99.90
56256;DHT22;57229;51.432;-2.598;2023-03-23T13:51:53;14.00;99.90
56256;DHT22;57229;51.432;-2.598;2023-03-23T13:54:39;13.60;99.90
56256;DHT22;57229;51.432;-2.598;2023-03-23T13:57:35;13.30;99.90
56256;DHT22;57229;51.432;-2.598;2023-03-23T14:06:33;12.00;99.90
56256;DHT22;57229;51.432;-2.598;2023-03-23T14:11:09;11.90;99.90
56256;DHT22;57229;51.432;-2.598;2023-03-23T14:13:39;11.90;99.90
56256;DHT22;57229;51.432;-2.598;2023-03-23T14:18:42;11.90;99.90
56256;DHT22;57229;51.432;-2.598;2023-03-23T14:21:21;12.00;99.90
56256;DHT22;57229;51.432;-2.598;2023-03-23T14:23:47;12.00;99.90
56256;DHT22;57229;51.432;-2.598;2023-03-23T14:26:21;11.90;99.90
56256;DHT22;57229;51.432;-2.598;2023-03-23T14:28:52;11.80;99.90
56256;DHT22;57229;51.432;-2.598;2023-03-23T14:31:37;11.70;99.90
56256;DHT22;57229;51.432;-2.598;2023-03-23T14:34:09;11.50;99.90
56256;DHT22;57229;51.432;-2.598;2023-03-23T14:39:45;11.10;99.90
56256;DHT22;57229;51.432;-2.598;2023-03-23T14:43:00;11.00;99.90
56256;DHT22;57229;51.432;-2.598;2023-03-23T14:45:20;10.80;99.90
56256;DHT22;57229;51.432;-2.598;2023-03-23T14:47:52;10.60;99.90
56256;DHT22;57229;51.432;-2.598;2023-03-23T14:53:11;10.40;99.90
56256;DHT22;57229;51.432;-2.598;2023-03-23T14:55:37;10.40;99.90
56256;DHT22;57229;51.432;-2.598;2023-03-23T14:58:09;10.30;99.90
56256;DHT22;57229;51.432;-2.598;2023-03-23T15:01:04;10.40;99.90
56256;DHT22;57229;51.432;-2.598;2023-03-23T15:03:35;10.40;99.90
56256;DHT22;57229;51.432;-2.598;2023-03-23T15:06:06;10.40;99.90
56256;DHT22;57229;51.432;-2.598;2023-03-23T15:08:34;10.40;99.90
56256;DHT22;57229;51.432;-2.598;2023-03-23T15:11:13;10.40;99.90
56256;DHT22;57229;51.432;-2.598;2023-03-23T15:13:50;10.30;99.90
56256;DHT22;57229;51.432;-2.598;2023-03-23T15:19:15;10.20;99.90
56256;DHT22;57229;51.432;-2.598;2023-03-23T15:21:53;10.20;99.90
56256;DHT22;57229;51.432;-2.598;2023-03-23T15:24:25;10.20;99.90
56256;DHT22;57229;51.432;-2.598;2023-03-23T15:26:52;10.20;99.90
56256;DHT22;57229;51.432;-2.598;2023-03-23T15:29:20;10.20;99.90
56256;DHT22;57229;51.432;-2.598;2023-03-23T15:31:52;10.20;99.90
56256;DHT22;57229;51.432;-2.598;2023-03-23T15:34:29;10.10;99.90
56256;DHT22;57229;51.432;-2.598;2023-03-23T15:37:04;10.20;99.90
56256;DHT22;57229;51.432;-2.598;2023-03-23T15:39:31;10.30;99.90
56256;DHT22;57229;51.432;-2.598;2023-03-23T15:41:58;10.30;99.90
56256;DHT22;57229;51.432;-2.598;2023-03-23T15:44:27;10.40;99.90
56256;DHT22;57229;51.432;-2.598;2023-03-23T15:47:13;10.40;99.90
56256;DHT22;57229;51.432;-2.598;2023-03-23T15:49:39;10.40;99.90
56256;DHT22;57229;51.432;-2.598;2023-03-23T15:52:11;10.50;99.90
56256;DHT22;57229;51.432;-2.598;2023-03-23T15:54:37;10.60;99.90
56256;DHT22;57229;51.432;-2.598;2023-03-23T15:57:03;10.70;99.90
56256;DHT22;57229;51.432;-2.598;2023-03-23T15:59:32;10.70;99.90
56256;DHT22;57229;51.432;-2.598;2023-03-23T16:01:58;10.70;99.90
56256;DHT22;57229;51.432;-2.598;2023-03-23T16:04:24;10.60;99.90
56256;DHT22;57229;51.432;-2.598;2023-03-23T16:06:52;10.60;99.90
56256;DHT22;57229;51.432;-2.598;2023-03-23T16:09:20;10.60;99.90
56256;DHT22;57229;51.432;-2.598;2023-03-23T16:11:46;10.60;99.90
56256;DHT22;57229;51.432;-2.598;2023-03-23T16:14:12;10.60;99.90
56256;DHT22;57229;51.432;-2.598;2023-03-23T16:16:44;10.60;99.90
56256;DHT22;57229;51.432;-2.598;2023-03-23T16:19:12;10.60;99.90
56256;DHT22;57229;51.432;-2.598;2023-03-23T16:21:38;10.60;99.90
56256;DHT22;57229;51.432;-2.598;2023-03-23T16:24:04;10.70;99.90
56256;DHT22;57229;51.432;-2.598;2023-03-23T16:26:30;10.70;99.90
56256;DHT22;57229;51.432;-2.598;2023-03-23T16:28:56;10.70;99.90
56256;DHT22;57229;51.432;-2.598;2023-03-23T16:31:22;10.70;99.90
56256;DHT22;57229;51.432;-2.598;2023-03-23T16:33:47;10.70;99.90
56256;DHT22;57229;51.432;-2.598;2023-03-23T16:40:10;10.60;99.90
56256;DHT22;57229;51.432;-2.598;2023-03-23T16:46:06;10.60;99.90
56256;DHT22;57229;51.432;-2.598;2023-03-23T16:48:32;10.60;99.90
56256;DHT22;57229;51.432;-2.598;2023-03-23T16:50:57;10.50;99.90
56256;DHT22;57229;51.432;-2.598;2023-03-23T16:53:23;10.50;99.90
56256;DHT22;57229;51.432;-2.598;2023-03-23T16:55:51;10.50;99.90
56256;DHT22;57229;51.432;-2.598;2023-03-23T16:58:18;10.30;99.90
56256;DHT22;57229;51.432;-2.598;2023-03-23T17:00:48;10.10;99.90
56256;DHT22;57229;51.432;-2.598;2023-03-23T17:03:16;9.90;99.90
56256;DHT22;57229;51.432;-2.598;2023-03-23T17:05:43;9.70;99.90
56256;DHT22;57229;51.432;-2.598;2023-03-23T17:08:09;9.60;99.90
56256;DHT22;57229;51.432;-2.598;2023-03-23T17:10:37;9.50;99.90
56256;DHT22;57229;51.432;-2.598;2023-03-23T17:13:03;9.40;99.90
56256;DHT22;57229;51.432;-2.598;2023-03-23T17:15:28;9.40;99.90
56256;DHT22;57229;51.432;-2.598;2023-03-23T17:17:54;9.30;99.90
56256;DHT22;57229;51.432;-2.598;2023-03-23T17:20:20;9.30;99.90
56256;DHT22;57229;51.432;-2.598;2023-03-23T17:22:47;9.30;99.90
56256;DHT22;57229;51.432;-2.598;2023-03-23T17:25:12;9.30;99.90
56256;DHT22;57229;51.432;-2.598;2023-03-23T17:27:39;9.20;99.90
56256;DHT22;57229;51.432;-2.598;2023-03-23T17:30:06;9.30;99.90
56256;DHT22;57229;51.432;-2.598;2023-03-23T17:32:32;9.20;99.90
56256;DHT22;57229;51.432;-2.598;2023-03-23T17:34:58;9.20;99.90
56256;DHT22;57229;51.432;-2.598;2023-03-23T17:37:24;9.20;99.90
56256;DHT22;57229;51.432;-2.598;2023-03-23T17:39:50;9.20;99.90
56256;DHT22;57229;51.432;-2.598;2023-03-23T17:42:16;9.30;99.90
56256;DHT22;57229;51.432;-2.598;2023-03-23T17:44:43;9.20;99.90
56256;DHT22;57229;51.432;-2.598;2023-03-23T17:47:09;9.20;99.90
56256;DHT22;57229;51.432;-2.598;2023-03-23T17:49:34;9.20;99.90
56256;DHT22;57229;51.432;-2.598;2023-03-23T17:52:00;9.20;99.90
56256;DHT22;57229;51.432;-2.598;2023-03-23T17:54:27;9.20;99.90
56256;DHT22;57229;51.432;-2.598;2023-03-23T17:56:56;9.10;99.90
56256;DHT22;57229;51.432;-2.598;2023-03-23T17:59:28;9.10;99.90